• Join FlightAware (Why Join?)
  • Login
  • US Flag 
07:08AM EDT


 

Airport Tracker/Info


-or-


 

Live Flight TrackerFlight Track Log ✈ N830QS ✈ 29-Jun-2013 ✈ KVNY - U76

Flight Track Log - Related Links

Times and Time Zones

All times are in EDT time to prevent confusion due to time zone crossing. See the N830QS flight status page for this flight to view local times or setup timezone preferences in your user account.

Time Position Orientation Groundspeed Altitude Reporting Facility
EDT Latitude Longitude Course Direction KTS MPH feet Rate Location/Type
01:31PM 34.1500 -118.5167 248° West 207 238 2,900  Level Southern California TRACON
01:32PM 34.1333 -118.5667 248° West 229 264 4,700 1,680 Climbing Southern California TRACON
01:33PM 34.1986 -118.6208 326° Northwest 267 307 6,700 1,380 Climbing Los Angeles Center
01:34PM 34.2906 -118.6567 342° North 286 329 8,000 1,140 Climbing Los Angeles Center
01:35PM 34.3706 -118.6886 342° North 298 343 9,100 1,500 Climbing Los Angeles Center
01:36PM 34.4528 -118.7206 342° North 311 358 11,200 1,920 Climbing Los Angeles Center
01:37PM 34.5383 -118.7550 342° North 326 375 13,200 1,320 Climbing Los Angeles Center
01:38PM 34.6281 -118.7908 342° North 340 391 14,000 960 Climbing Los Angeles Center
01:39PM 34.7372 -118.7989 357° North 334 384 15,200 960 Climbing Los Angeles Center
01:40PM 34.8372 -118.7797 North 361 415 16,100 1,320 Climbing Los Angeles Center
01:41PM 34.9456 -118.7575 10° North 369 425 18,000 2,040 Climbing Los Angeles Center
01:43PM 35.0408 -118.7403 North 354 407 20,400 1,800 Climbing Los Angeles Center
01:44PM 35.1375 -118.7217 North 352 405 21,900 1,380 Climbing Los Angeles Center
01:45PM 35.2392 -118.7031 North 364 419 23,300 1,260 Climbing Los Angeles Center
01:46PM 35.3458 -118.6828 North 378 435 24,600 1,200 Climbing Los Angeles Center
01:47PM 35.4511 -118.6617 North 383 441 25,800 1,380 Climbing Los Angeles Center
01:48PM 35.5806 -118.6361 North 393 452 27,500 1,560 Climbing Los Angeles Center
01:49PM 35.6875 -118.6161 North 390 449 29,100 1,380 Climbing Los Angeles Center
01:50PM 35.7950 -118.5958 North 391 450 30,400 1,620 Climbing Los Angeles Center
01:51PM 35.9014 -118.5742 North 390 449 32,500 1,920 Climbing Los Angeles Center
01:52PM 35.9975 -118.5558 North 364 419 34,400 1,680 Climbing Los Angeles Center
01:53PM 36.1125 -118.5333 North 352 405 36,000 1,200 Climbing Los Angeles Center
01:54PM 36.2061 -118.5133 10° North 350 403 36,900 900 Climbing Oakland Center
01:55PM 36.3044 -118.4931 North 355 409 37,900 480 Climbing Oakland Center
01:56PM 36.4050 -118.4736 North 363 418 38,000  Climbing Oakland Center
01:57PM 36.5072 -118.4558 North 379 436 38,000  Level Los Angeles Center
01:58PM 36.6378 -118.4286 North 394 453 38,000  Level Oakland Center
01:59PM 36.7517 -118.4075 North 406 467 38,000  Level Oakland Center
02:00PM 36.8628 -118.3792 12° North 408 470 38,000  Level Oakland Center
02:01PM 36.9822 -118.3636 North 416 479 38,000  Level Los Angeles Center
02:02PM 37.0983 -118.3397 North 420 483 38,000  Level Los Angeles Center
02:03PM 37.2369 -118.3117 North 420 483 38,000  Level Los Angeles Center
02:04PM 37.3514 -118.2844 11° North 424 488 38,000  Level Oakland Center
02:05PM 37.4678 -118.2594 10° North 424 488 38,000  Level Oakland Center
02:06PM 37.5861 -118.2356 North 428 493 38,000  Level Oakland Center
02:07PM 37.7039 -118.2122 North 429 494 38,000  Level Oakland Center
02:08PM 37.8214 -118.1875 North 427 491 38,000  Level Oakland Center
02:09PM 37.9403 -118.1628 North 430 495 38,000  Level Oakland Center
02:10PM 38.0583 -118.1386 North 427 491 38,000  Level Oakland Center
02:11PM 38.1872 -118.1117 North 429 494 38,000  Level Oakland Center
02:12PM 38.2958 -118.0894 North 429 494 38,000  Level Oakland Center
02:13PM 38.4408 -118.0581 10° North 436 502 38,000  Level Oakland Center
02:14PM 38.5572 -118.0256 12° North 429 494 38,000  Level Oakland Center
02:16PM 38.6783 -117.9681 20° North 435 501 38,000  Level Oakland Center
02:17PM 38.7919 -117.9156 20° North 435 501 38,000  Level Oakland Center
02:18PM 38.9047 -117.8617 20° North 435 501 38,000  Level Oakland Center
02:19PM 39.0186 -117.8086 20° North 436 502 38,000  Level Oakland Center
02:20PM 39.1331 -117.7539 20° North 439 505 38,000  Level Oakland Center
02:21PM 39.2478 -117.6997 20° North 441 507 38,000  Level Oakland Center
02:22PM 39.3622 -117.6456 20° North 440 506 38,000  Level Oakland Center
02:23PM 39.5008 -117.5794 20° North 443 510 38,000  Level Oakland Center
02:24PM 39.6153 -117.5242 20° North 442 509 38,000  Level Oakland Center
02:25PM 39.7269 -117.4708 20° North 442 509 38,000  Level Oakland Center
02:26PM 39.8372 -117.4169 21° North 442 509 38,000  Level Oakland Center
02:27PM 39.9664 -117.3539 21° North 443 510 38,000  Level Oakland Center
02:28PM 40.0786 -117.3000 20° North 447 514 38,000  Level Oakland Center
02:29PM 40.2078 -117.2369 20° North 443 510 38,000  Level Oakland Center
02:30PM 40.3206 -117.1833 20° North 447 514 38,000  Level Oakland Center
02:31PM 40.4344 -117.1283 20° North 448 516 38,000  Level Oakland Center
02:32PM 40.5681 -117.0628 20° North 451 519 38,000  Level Oakland Center
02:33PM 40.6794 -117.0056 21° North 446 513 38,000  Level Oakland Center
02:34PM 40.7925 -116.9492 21° North 449 517 38,000  Level Oakland Center
02:35PM 40.9753 -116.8553 21° North 444 511 38,000  Level Salt Lake Center
02:37PM 41.0875 -116.7997 20° North 448 516 38,000  Level Salt Lake Center
02:38PM 41.1964 -116.7442 21° North 441 507 38,000  Level Salt Lake Center
02:39PM 41.3256 -116.6789 21° North 443 510 38,000 -180 Level Salt Lake Center
02:40PM 41.4358 -116.6211 21° North 444 511 37,700 -1,260 Descending Salt Lake Center
02:41PM 41.5650 -116.5556 21° North 445 512 35,500 -2,100 Descending Salt Lake Center
02:42PM 41.6744 -116.4986 21° North 442 509 33,400 -2,280 Descending Salt Lake Center
02:43PM 41.8053 -116.4306 21° North 452 520 30,900 -2,280 Descending Salt Lake Center
02:44PM 41.9175 -116.3742 20° North 450 518 28,700 -2,280 Descending Salt Lake Center
02:45PM 42.0503 -116.3028 22° Northeast 448 516 26,300 -2,280 Descending Salt Lake Center
02:46PM 42.1575 -116.2469 21° North 430 495 24,100 -2,280 Descending Salt Lake Center
02:47PM 42.2814 -116.1806 22° Northeast 429 494 21,600 -2,280 Descending Salt Lake Center
02:48PM 42.3856 -116.1283 20° North 419 482 19,500 -2,100 Descending Salt Lake Center
02:49PM 42.4947 -116.0703 21° North 403 464 17,300 -2,280 Descending Salt Lake Center
02:50PM 42.5983 -116.0161 21° North 377 434 14,900 -2,340 Descending Salt Lake Center
02:51PM 42.6889 -115.9683 21° North 334 384 12,500 -1,440 Descending Salt Lake Center
02:52PM 42.7736 -115.9228 22° Northeast 317 365 12,000 -780 Descending Salt Lake Center
02:53PM 42.8597 -115.8775 21° North 316 364 11,000 -1,020 Descending Salt Lake Center
02:54PM 42.9294 -115.8442 19° North 280 322 10,000 -540 Descending Salt Lake Center
02:55PM 42.9867 -115.8153 20° North 211 243 10,000 -900 Level Salt Lake Center
02:56PM 43.0339 -115.7600 41° Northeast 223 257 8,200 -1,800 Descending Salt Lake Center
02:57PM 43.0669 -115.6872 58° Northeast 216 249 6,400 -1,800 Descending Salt Lake Center